sensor_id;sensor_type;location;lat;lon;timestamp;P1;durP1;ratioP1;P2;durP2;ratioP2
69623;SDS011;56843;52.020;5.670;2022-11-04T00:01:18;7.13;;;3.20;;
69623;SDS011;56843;52.020;5.670;2022-11-04T00:02:49;7.53;;;2.85;;
69623;SDS011;56843;52.020;5.670;2022-11-04T00:04:21;11.10;;;3.20;;
69623;SDS011;56843;52.020;5.670;2022-11-04T00:05:54;11.05;;;3.20;;
69623;SDS011;56843;52.020;5.670;2022-11-04T00:07:24;5.80;;;2.28;;
69623;SDS011;56843;52.020;5.670;2022-11-04T00:09:18;7.13;;;3.00;;
69623;SDS011;56843;52.020;5.670;2022-11-04T00:11:08;5.53;;;2.37;;
69623;SDS011;56843;52.020;5.670;2022-11-04T00:12:58;7.50;;;3.10;;
69623;SDS011;56843;52.020;5.670;2022-11-04T00:14:29;7.25;;;2.53;;
69623;SDS011;56843;52.020;5.670;2022-11-04T00:16:00;10.00;;;2.55;;
69623;SDS011;56843;52.020;5.670;2022-11-04T00:17:49;7.68;;;2.63;;
69623;SDS011;56843;52.020;5.670;2022-11-04T00:19:20;7.67;;;2.60;;
69623;SDS011;56843;52.020;5.670;2022-11-04T00:20:50;11.30;;;3.47;;
69623;SDS011;56843;52.020;5.670;2022-11-04T00:22:40;11.15;;;3.80;;
69623;SDS011;56843;52.020;5.670;2022-11-04T00:24:30;6.18;;;2.92;;
69623;SDS011;56843;52.020;5.670;2022-11-04T00:26:19;9.95;;;3.28;;
69623;SDS011;56843;52.020;5.670;2022-11-04T00:28:15;7.40;;;1.55;;
69623;SDS011;56843;52.020;5.670;2022-11-04T00:30:07;7.15;;;1.83;;
69623;SDS011;56843;52.020;5.670;2022-11-04T00:31:39;8.80;;;4.00;;
69623;SDS011;56843;52.020;5.670;2022-11-04T00:33:28;7.50;;;2.90;;
69623;SDS011;56843;52.020;5.670;2022-11-04T00:34:59;10.47;;;4.37;;
69623;SDS011;56843;52.020;5.670;2022-11-04T00:36:29;14.33;;;3.53;;
69623;SDS011;56843;52.020;5.670;2022-11-04T00:38:00;14.27;;;5.40;;
69623;SDS011;56843;52.020;5.670;2022-11-04T00:39:30;7.67;;;3.30;;
69623;SDS011;56843;52.020;5.670;2022-11-04T00:41:01;9.63;;;4.00;;
69623;SDS011;56843;52.020;5.670;2022-11-04T00:42:32;20.07;;;6.17;;
69623;SDS011;56843;52.020;5.670;2022-11-04T00:44:03;8.50;;;3.22;;
69623;SDS011;56843;52.020;5.670;2022-11-04T00:45:34;8.32;;;4.03;;
69623;SDS011;56843;52.020;5.670;2022-11-04T00:47:05;10.90;;;4.63;;
69623;SDS011;56843;52.020;5.670;2022-11-04T00:48:35;22.13;;;5.72;;
69623;SDS011;56843;52.020;5.670;2022-11-04T00:50:06;7.27;;;3.43;;
69623;SDS011;56843;52.020;5.670;2022-11-04T00:51:37;11.43;;;4.38;;
69623;SDS011;56843;52.020;5.670;2022-11-04T00:53:08;6.93;;;3.15;;
69623;SDS011;56843;52.020;5.670;2022-11-04T00:54:39;8.33;;;3.33;;
69623;SDS011;56843;52.020;5.670;2022-11-04T00:56:09;8.48;;;3.67;;
69623;SDS011;56843;52.020;5.670;2022-11-04T00:57:40;5.90;;;2.20;;
69623;SDS011;56843;52.020;5.670;2022-11-04T00:59:10;3.37;;;1.37;;
69623;SDS011;56843;52.020;5.670;2022-11-04T01:00:41;5.40;;;2.15;;
69623;SDS011;56843;52.020;5.670;2022-11-04T01:02:11;5.67;;;1.80;;
69623;SDS011;56843;52.020;5.670;2022-11-04T01:03:46;3.35;;;1.23;;
69623;SDS011;56843;52.020;5.670;2022-11-04T01:05:18;3.25;;;1.40;;
69623;SDS011;56843;52.020;5.670;2022-11-04T01:06:48;5.90;;;1.87;;
69623;SDS011;56843;52.020;5.670;2022-11-04T01:08:19;6.75;;;1.88;;
69623;SDS011;56843;52.020;5.670;2022-11-04T01:09:50;14.77;;;3.63;;
69623;SDS011;56843;52.020;5.670;2022-11-04T01:11:20;9.27;;;2.58;;
69623;SDS011;56843;52.020;5.670;2022-11-04T01:12:51;6.63;;;2.27;;
69623;SDS011;56843;52.020;5.670;2022-11-04T01:14:22;13.98;;;3.50;;
69623;SDS011;56843;52.020;5.670;2022-11-04T01:15:56;13.18;;;3.08;;
69623;SDS011;56843;52.020;5.670;2022-11-04T01:17:27;5.50;;;1.52;;
69623;SDS011;56843;52.020;5.670;2022-11-04T01:18:58;11.53;;;2.53;;
69623;SDS011;56843;52.020;5.670;2022-11-04T01:20:29;10.68;;;2.15;;
69623;SDS011;56843;52.020;5.670;2022-11-04T01:21:59;26.50;;;6.38;;
69623;SDS011;56843;52.020;5.670;2022-11-04T01:23:30;24.17;;;6.03;;
69623;SDS011;56843;52.020;5.670;2022-11-04T01:25:03;8.07;;;1.85;;
69623;SDS011;56843;52.020;5.670;2022-11-04T01:26:34;3.63;;;1.10;;
69623;SDS011;56843;52.020;5.670;2022-11-04T01:28:04;18.60;;;5.00;;
69623;SDS011;56843;52.020;5.670;2022-11-04T01:29:35;13.13;;;4.38;;
69623;SDS011;56843;52.020;5.670;2022-11-04T01:31:06;4.23;;;1.53;;
69623;SDS011;56843;52.020;5.670;2022-11-04T01:32:38;11.32;;;3.38;;
69623;SDS011;56843;52.020;5.670;2022-11-04T01:34:09;11.10;;;2.10;;
69623;SDS011;56843;52.020;5.670;2022-11-04T01:35:40;3.70;;;1.23;;
69623;SDS011;56843;52.020;5.670;2022-11-04T01:37:10;3.23;;;1.10;;
69623;SDS011;56843;52.020;5.670;2022-11-04T01:38:41;5.23;;;1.53;;
69623;SDS011;56843;52.020;5.670;2022-11-04T01:40:12;3.80;;;0.95;;
69623;SDS011;56843;52.020;5.670;2022-11-04T01:41:42;3.93;;;0.90;;
69623;SDS011;56843;52.020;5.670;2022-11-04T01:43:14;2.50;;;1.00;;
69623;SDS011;56843;52.020;5.670;2022-11-04T01:44:53;2.70;;;1.08;;
69623;SDS011;56843;52.020;5.670;2022-11-04T01:48:03;2.65;;;1.00;;
69623;SDS011;56843;52.020;5.670;2022-11-04T01:49:38;2.90;;;1.20;;
69623;SDS011;56843;52.020;5.670;2022-11-04T01:51:09;3.40;;;1.30;;
69623;SDS011;56843;52.020;5.670;2022-11-04T01:54:22;5.13;;;1.70;;
69623;SDS011;56843;52.020;5.670;2022-11-04T01:55:55;7.32;;;1.98;;
69623;SDS011;56843;52.020;5.670;2022-11-04T01:57:29;9.27;;;2.53;;
69623;SDS011;56843;52.020;5.670;2022-11-04T01:59:08;4.57;;;1.52;;
69623;SDS011;56843;52.020;5.670;2022-11-04T02:03:20;4.18;;;1.67;;
69623;SDS011;56843;52.020;5.670;2022-11-04T02:04:58;6.47;;;1.92;;
69623;SDS011;56843;52.020;5.670;2022-11-04T02:06:29;5.07;;;1.97;;
69623;SDS011;56843;52.020;5.670;2022-11-04T02:08:00;10.23;;;2.22;;
69623;SDS011;56843;52.020;5.670;2022-11-04T02:09:33;8.02;;;3.05;;
69623;SDS011;56843;52.020;5.670;2022-11-04T02:11:06;4.72;;;1.95;;
69623;SDS011;56843;52.020;5.670;2022-11-04T02:12:37;6.50;;;2.30;;
69623;SDS011;56843;52.020;5.670;2022-11-04T02:14:20;7.57;;;2.53;;
69623;SDS011;56843;52.020;5.670;2022-11-04T02:17:57;11.23;;;2.72;;
69623;SDS011;56843;52.020;5.670;2022-11-04T02:24:58;7.00;;;3.30;;
69623;SDS011;56843;52.020;5.670;2022-11-04T02:30:44;16.13;;;4.63;;
69623;SDS011;56843;52.020;5.670;2022-11-04T02:36:00;28.02;;;12.18;;
69623;SDS011;56843;52.020;5.670;2022-11-04T02:37:39;15.97;;;6.70;;
69623;SDS011;56843;52.020;5.670;2022-11-04T02:41:27;11.38;;;4.28;;
69623;SDS011;56843;52.020;5.670;2022-11-04T02:46:58;11.93;;;4.95;;
69623;SDS011;56843;52.020;5.670;2022-11-04T02:48:34;15.50;;;3.83;;
69623;SDS011;56843;52.020;5.670;2022-11-04T02:51:46;6.10;;;2.83;;
69623;SDS011;56843;52.020;5.670;2022-11-04T02:55:02;6.63;;;3.07;;
69623;SDS011;56843;52.020;5.670;2022-11-04T02:56:38;8.00;;;3.70;;
69623;SDS011;56843;52.020;5.670;2022-11-04T02:58:18;10.60;;;4.30;;
69623;SDS011;56843;52.020;5.670;2022-11-04T03:00:04;12.27;;;4.93;;
69623;SDS011;56843;52.020;5.670;2022-11-04T03:01:38;15.10;;;6.88;;
69623;SDS011;56843;52.020;5.670;2022-11-04T03:03:13;9.52;;;4.50;;
69623;SDS011;56843;52.020;5.670;2022-11-04T03:04:48;16.60;;;5.60;;
69623;SDS011;56843;52.020;5.670;2022-11-04T03:06:22;16.67;;;7.40;;
69623;SDS011;56843;52.020;5.670;2022-11-04T03:07:55;16.55;;;8.20;;
69623;SDS011;56843;52.020;5.670;2022-11-04T03:09:30;17.67;;;7.30;;
69623;SDS011;56843;52.020;5.670;2022-11-04T03:11:22;12.75;;;4.55;;
69623;SDS011;56843;52.020;5.670;2022-11-04T03:12:57;15.10;;;7.10;;
69623;SDS011;56843;52.020;5.670;2022-11-04T03:14:51;21.55;;;6.20;;
69623;SDS011;56843;52.020;5.670;2022-11-04T03:16:31;31.45;;;12.30;;
69623;SDS011;56843;52.020;5.670;2022-11-04T03:19:53;19.90;;;7.88;;
69623;SDS011;56843;52.020;5.670;2022-11-04T03:21:27;15.40;;;7.50;;
69623;SDS011;56843;52.020;5.670;2022-11-04T03:23:00;35.37;;;11.90;;
69623;SDS011;56843;52.020;5.670;2022-11-04T03:24:31;24.48;;;10.18;;
69623;SDS011;56843;52.020;5.670;2022-11-04T03:26:10;37.00;;;13.73;;
69623;SDS011;56843;52.020;5.670;2022-11-04T03:27:52;24.53;;;9.57;;
69623;SDS011;56843;52.020;5.670;2022-11-04T03:29:43;31.93;;;12.33;;
69623;SDS011;56843;52.020;5.670;2022-11-04T03:31:50;36.55;;;13.00;;
69623;SDS011;56843;52.020;5.670;2022-11-04T03:35:16;35.88;;;13.73;;
69623;SDS011;56843;52.020;5.670;2022-11-04T03:36:47;31.30;;;11.52;;
69623;SDS011;56843;52.020;5.670;2022-11-04T03:38:19;26.30;;;12.27;;
69623;SDS011;56843;52.020;5.670;2022-11-04T03:39:50;28.58;;;11.07;;
69623;SDS011;56843;52.020;5.670;2022-11-04T03:41:30;28.50;;;10.73;;
69623;SDS011;56843;52.020;5.670;2022-11-04T03:43:15;22.35;;;10.45;;
69623;SDS011;56843;52.020;5.670;2022-11-04T03:44:52;28.25;;;10.43;;
69623;SDS011;56843;52.020;5.670;2022-11-04T03:46:24;25.90;;;11.13;;
69623;SDS011;56843;52.020;5.670;2022-11-04T03:47:55;27.60;;;10.63;;
69623;SDS011;56843;52.020;5.670;2022-11-04T03:49:27;25.42;;;11.60;;
69623;SDS011;56843;52.020;5.670;2022-11-04T03:50:57;24.20;;;10.93;;
69623;SDS011;56843;52.020;5.670;2022-11-04T03:52:28;24.43;;;9.33;;
69623;SDS011;56843;52.020;5.670;2022-11-04T03:53:59;23.88;;;9.95;;
69623;SDS011;56843;52.020;5.670;2022-11-04T04:00:37;20.60;;;9.73;;
69623;SDS011;56843;52.020;5.670;2022-11-04T04:02:23;24.48;;;11.88;;
69623;SDS011;56843;52.020;5.670;2022-11-04T04:04:13;32.33;;;14.45;;
69623;SDS011;56843;52.020;5.670;2022-11-04T04:06:02;34.38;;;11.38;;
69623;SDS011;56843;52.020;5.670;2022-11-04T04:07:47;29.08;;;11.93;;
69623;SDS011;56843;52.020;5.670;2022-11-04T04:09:24;22.80;;;11.25;;
69623;SDS011;56843;52.020;5.670;2022-11-04T04:12:39;29.33;;;12.15;;
69623;SDS011;56843;52.020;5.670;2022-11-04T04:16:29;27.98;;;10.15;;
69623;SDS011;56843;52.020;5.670;2022-11-04T04:18:04;22.52;;;10.88;;
69623;SDS011;56843;52.020;5.670;2022-11-04T04:19:41;22.77;;;11.50;;
69623;SDS011;56843;52.020;5.670;2022-11-04T04:21:21;28.98;;;11.85;;
69623;SDS011;56843;52.020;5.670;2022-11-04T04:22:59;27.60;;;10.07;;
69623;SDS011;56843;52.020;5.670;2022-11-04T04:24:34;18.67;;;9.48;;
69623;SDS011;56843;52.020;5.670;2022-11-04T04:26:25;22.70;;;10.52;;
69623;SDS011;56843;52.020;5.670;2022-11-04T04:28:16;24.90;;;9.30;;
69623;SDS011;56843;52.020;5.670;2022-11-04T04:29:49;17.77;;;9.13;;
69623;SDS011;56843;52.020;5.670;2022-11-04T04:31:21;16.60;;;7.50;;
69623;SDS011;56843;52.020;5.670;2022-11-04T04:33:15;31.10;;;12.02;;
69623;SDS011;56843;52.020;5.670;2022-11-04T04:34:48;20.65;;;9.02;;
69623;SDS011;56843;52.020;5.670;2022-11-04T04:36:19;12.15;;;5.85;;
69623;SDS011;56843;52.020;5.670;2022-11-04T04:37:50;11.77;;;5.90;;
69623;SDS011;56843;52.020;5.670;2022-11-04T04:39:23;16.70;;;5.85;;
69623;SDS011;56843;52.020;5.670;2022-11-04T04:43:07;13.97;;;5.97;;
69623;SDS011;56843;52.020;5.670;2022-11-04T04:45:03;11.75;;;5.95;;
69623;SDS011;56843;52.020;5.670;2022-11-04T04:46:35;18.90;;;6.00;;
69623;SDS011;56843;52.020;5.670;2022-11-04T04:48:08;20.40;;;6.05;;
69623;SDS011;56843;52.020;5.670;2022-11-04T04:49:48;13.13;;;5.38;;
69623;SDS011;56843;52.020;5.670;2022-11-04T04:51:20;18.73;;;6.70;;
69623;SDS011;56843;52.020;5.670;2022-11-04T04:52:52;12.63;;;5.38;;
69623;SDS011;56843;52.020;5.670;2022-11-04T04:54:25;10.13;;;4.72;;
69623;SDS011;56843;52.020;5.670;2022-11-04T04:55:58;16.42;;;6.57;;
69623;SDS011;56843;52.020;5.670;2022-11-04T04:57:29;16.27;;;6.43;;
69623;SDS011;56843;52.020;5.670;2022-11-04T04:58:59;17.40;;;6.57;;
69623;SDS011;56843;52.020;5.670;2022-11-04T05:00:30;12.30;;;5.70;;
69623;SDS011;56843;52.020;5.670;2022-11-04T05:02:02;20.85;;;6.10;;
69623;SDS011;56843;52.020;5.670;2022-11-04T05:03:33;14.17;;;6.10;;
69623;SDS011;56843;52.020;5.670;2022-11-04T05:05:03;10.98;;;5.65;;
69623;SDS011;56843;52.020;5.670;2022-11-04T05:06:35;15.45;;;6.35;;
69623;SDS011;56843;52.020;5.670;2022-11-04T05:08:06;13.25;;;6.55;;
69623;SDS011;56843;52.020;5.670;2022-11-04T05:09:37;19.00;;;6.97;;
69623;SDS011;56843;52.020;5.670;2022-11-04T05:11:08;17.30;;;6.18;;
69623;SDS011;56843;52.020;5.670;2022-11-04T05:12:39;16.95;;;6.20;;
69623;SDS011;56843;52.020;5.670;2022-11-04T05:14:28;11.73;;;5.53;;
69623;SDS011;56843;52.020;5.670;2022-11-04T05:16:05;13.03;;;6.40;;
69623;SDS011;56843;52.020;5.670;2022-11-04T05:17:37;12.38;;;6.50;;
69623;SDS011;56843;52.020;5.670;2022-11-04T05:19:08;16.67;;;7.15;;
69623;SDS011;56843;52.020;5.670;2022-11-04T05:20:39;15.70;;;6.27;;
69623;SDS011;56843;52.020;5.670;2022-11-04T05:22:09;12.50;;;5.90;;
69623;SDS011;56843;52.020;5.670;2022-11-04T05:23:40;11.70;;;5.80;;
69623;SDS011;56843;52.020;5.670;2022-11-04T05:25:10;15.02;;;5.95;;
69623;SDS011;56843;52.020;5.670;2022-11-04T05:26:41;15.40;;;6.10;;
69623;SDS011;56843;52.020;5.670;2022-11-04T05:28:11;16.73;;;5.90;;
69623;SDS011;56843;52.020;5.670;2022-11-04T05:29:42;14.40;;;5.88;;
69623;SDS011;56843;52.020;5.670;2022-11-04T05:31:13;17.53;;;6.63;;
69623;SDS011;56843;52.020;5.670;2022-11-04T05:32:43;15.35;;;6.05;;
69623;SDS011;56843;52.020;5.670;2022-11-04T05:34:14;13.90;;;6.50;;
69623;SDS011;56843;52.020;5.670;2022-11-04T05:35:44;15.48;;;5.22;;
69623;SDS011;56843;52.020;5.670;2022-11-04T05:37:15;19.93;;;5.47;;
69623;SDS011;56843;52.020;5.670;2022-11-04T05:38:49;15.00;;;6.17;;
69623;SDS011;56843;52.020;5.670;2022-11-04T05:40:20;14.77;;;5.63;;
69623;SDS011;56843;52.020;5.670;2022-11-04T05:41:51;11.27;;;4.95;;
69623;SDS011;56843;52.020;5.670;2022-11-04T05:43:22;15.13;;;6.10;;
69623;SDS011;56843;52.020;5.670;2022-11-04T05:44:53;16.63;;;6.53;;
69623;SDS011;56843;52.020;5.670;2022-11-04T05:46:23;13.52;;;6.32;;
69623;SDS011;56843;52.020;5.670;2022-11-04T05:47:57;18.80;;;6.03;;
69623;SDS011;56843;52.020;5.670;2022-11-04T05:49:29;14.82;;;6.55;;
69623;SDS011;56843;52.020;5.670;2022-11-04T05:51:00;13.82;;;5.85;;
69623;SDS011;56843;52.020;5.670;2022-11-04T05:52:30;12.97;;;5.20;;
69623;SDS011;56843;52.020;5.670;2022-11-04T05:54:01;16.55;;;5.50;;
69623;SDS011;56843;52.020;5.670;2022-11-04T05:55:32;13.10;;;5.25;;
69623;SDS011;56843;52.020;5.670;2022-11-04T05:57:03;13.60;;;5.70;;
69623;SDS011;56843;52.020;5.670;2022-11-04T05:58:33;15.13;;;5.72;;
69623;SDS011;56843;52.020;5.670;2022-11-04T06:00:04;11.97;;;5.43;;
69623;SDS011;56843;52.020;5.670;2022-11-04T06:01:39;15.27;;;6.05;;
69623;SDS011;56843;52.020;5.670;2022-11-04T06:03:11;12.52;;;5.57;;
69623;SDS011;56843;52.020;5.670;2022-11-04T06:04:42;18.63;;;5.20;;
69623;SDS011;56843;52.020;5.670;2022-11-04T06:06:16;12.45;;;4.80;;
69623;SDS011;56843;52.020;5.670;2022-11-04T06:07:47;15.77;;;5.88;;
69623;SDS011;56843;52.020;5.670;2022-11-04T06:09:18;12.17;;;4.93;;
69623;SDS011;56843;52.020;5.670;2022-11-04T06:10:54;13.68;;;4.30;;
69623;SDS011;56843;52.020;5.670;2022-11-04T06:12:37;13.27;;;5.18;;
69623;SDS011;56843;52.020;5.670;2022-11-04T06:14:10;14.13;;;6.60;;
69623;SDS011;56843;52.020;5.670;2022-11-04T06:15:40;13.85;;;5.07;;
69623;SDS011;56843;52.020;5.670;2022-11-04T06:17:15;15.73;;;4.90;;
69623;SDS011;56843;52.020;5.670;2022-11-04T06:18:47;16.23;;;4.35;;
69623;SDS011;56843;52.020;5.670;2022-11-04T06:20:18;11.43;;;3.73;;
69623;SDS011;56843;52.020;5.670;2022-11-04T06:21:48;16.80;;;4.03;;
69623;SDS011;56843;52.020;5.670;2022-11-04T06:23:19;12.17;;;4.50;;
69623;SDS011;56843;52.020;5.670;2022-11-04T06:24:50;11.23;;;3.93;;
69623;SDS011;56843;52.020;5.670;2022-11-04T06:26:21;8.80;;;3.70;;
69623;SDS011;56843;52.020;5.670;2022-11-04T06:27:55;8.95;;;3.95;;
69623;SDS011;56843;52.020;5.670;2022-11-04T06:29:29;14.17;;;3.80;;
69623;SDS011;56843;52.020;5.670;2022-11-04T06:31:03;15.27;;;3.67;;
69623;SDS011;56843;52.020;5.670;2022-11-04T06:35:00;13.65;;;3.40;;
69623;SDS011;56843;52.020;5.670;2022-11-04T06:36:33;9.38;;;2.83;;
69623;SDS011;56843;52.020;5.670;2022-11-04T06:38:06;12.90;;;3.30;;
69623;SDS011;56843;52.020;5.670;2022-11-04T06:39:39;9.63;;;3.50;;
69623;SDS011;56843;52.020;5.670;2022-11-04T06:41:15;6.55;;;2.75;;
69623;SDS011;56843;52.020;5.670;2022-11-04T06:42:52;8.55;;;2.70;;
69623;SDS011;56843;52.020;5.670;2022-11-04T06:44:33;12.88;;;3.28;;
69623;SDS011;56843;52.020;5.670;2022-11-04T06:48:11;8.87;;;2.83;;
69623;SDS011;56843;52.020;5.670;2022-11-04T06:49:44;15.18;;;3.55;;
69623;SDS011;56843;52.020;5.670;2022-11-04T06:51:15;13.57;;;3.15;;
69623;SDS011;56843;52.020;5.670;2022-11-04T06:52:45;10.80;;;3.47;;
69623;SDS011;56843;52.020;5.670;2022-11-04T06:54:16;12.53;;;3.63;;
69623;SDS011;56843;52.020;5.670;2022-11-04T06:55:47;9.33;;;3.37;;
69623;SDS011;56843;52.020;5.670;2022-11-04T06:57:17;14.38;;;3.03;;
69623;SDS011;56843;52.020;5.670;2022-11-04T06:58:49;6.27;;;2.70;;
69623;SDS011;56843;52.020;5.670;2022-11-04T07:00:22;10.25;;;3.33;;
69623;SDS011;56843;52.020;5.670;2022-11-04T07:01:57;9.60;;;3.05;;
69623;SDS011;56843;52.020;5.670;2022-11-04T07:03:27;10.95;;;3.15;;
69623;SDS011;56843;52.020;5.670;2022-11-04T07:04:59;12.57;;;2.90;;
69623;SDS011;56843;52.020;5.670;2022-11-04T07:06:32;15.80;;;3.20;;
69623;SDS011;56843;52.020;5.670;2022-11-04T07:08:05;9.35;;;3.17;;
69623;SDS011;56843;52.020;5.670;2022-11-04T07:09:38;13.20;;;3.33;;
69623;SDS011;56843;52.020;5.670;2022-11-04T07:11:09;13.52;;;3.83;;
69623;SDS011;56843;52.020;5.670;2022-11-04T07:15:06;13.50;;;3.00;;
69623;SDS011;56843;52.020;5.670;2022-11-04T07:16:43;9.98;;;3.33;;
69623;SDS011;56843;52.020;5.670;2022-11-04T07:18:13;9.73;;;2.85;;
69623;SDS011;56843;52.020;5.670;2022-11-04T07:19:53;10.43;;;3.50;;
69623;SDS011;56843;52.020;5.670;2022-11-04T07:21:48;12.80;;;3.20;;
69623;SDS011;56843;52.020;5.670;2022-11-04T07:23:55;10.55;;;3.15;;
69623;SDS011;56843;52.020;5.670;2022-11-04T07:25:27;7.93;;;3.30;;
69623;SDS011;56843;52.020;5.670;2022-11-04T07:26:58;17.07;;;3.27;;
69623;SDS011;56843;52.020;5.670;2022-11-04T07:28:38;7.38;;;2.83;;
69623;SDS011;56843;52.020;5.670;2022-11-04T07:30:24;15.25;;;3.22;;
69623;SDS011;56843;52.020;5.670;2022-11-04T07:31:59;10.55;;;3.45;;
69623;SDS011;56843;52.020;5.670;2022-11-04T07:33:32;9.95;;;3.63;;
69623;SDS011;56843;52.020;5.670;2022-11-04T07:35:03;11.50;;;4.05;;
69623;SDS011;56843;52.020;5.670;2022-11-04T07:36:41;11.27;;;3.97;;
69623;SDS011;56843;52.020;5.670;2022-11-04T07:38:11;14.23;;;3.15;;
69623;SDS011;56843;52.020;5.670;2022-11-04T07:39:42;10.27;;;3.50;;
69623;SDS011;56843;52.020;5.670;2022-11-04T07:41:17;8.98;;;3.33;;
69623;SDS011;56843;52.020;5.670;2022-11-04T07:42:47;14.30;;;3.20;;
69623;SDS011;56843;52.020;5.670;2022-11-04T07:44:21;23.30;;;3.72;;
69623;SDS011;56843;52.020;5.670;2022-11-04T07:46:03;9.00;;;3.60;;
69623;SDS011;56843;52.020;5.670;2022-11-04T07:47:37;9.30;;;3.47;;
69623;SDS011;56843;52.020;5.670;2022-11-04T07:49:09;7.93;;;3.28;;
69623;SDS011;56843;52.020;5.670;2022-11-04T07:50:40;9.47;;;3.60;;
69623;SDS011;56843;52.020;5.670;2022-11-04T07:52:10;9.07;;;3.53;;
69623;SDS011;56843;52.020;5.670;2022-11-04T07:53:41;7.77;;;3.33;;
69623;SDS011;56843;52.020;5.670;2022-11-04T07:55:14;12.75;;;3.65;;
69623;SDS011;56843;52.020;5.670;2022-11-04T07:56:50;19.88;;;3.40;;
69623;SDS011;56843;52.020;5.670;2022-11-04T07:58:21;15.32;;;3.88;;
69623;SDS011;56843;52.020;5.670;2022-11-04T07:59:52;15.65;;;4.45;;
69623;SDS011;56843;52.020;5.670;2022-11-04T08:01:24;6.53;;;2.50;;
69623;SDS011;56843;52.020;5.670;2022-11-04T08:02:55;15.60;;;3.53;;
69623;SDS011;56843;52.020;5.670;2022-11-04T08:04:26;9.45;;;3.72;;
69623;SDS011;56843;52.020;5.670;2022-11-04T08:05:57;14.40;;;4.03;;
69623;SDS011;56843;52.020;5.670;2022-11-04T08:07:29;15.65;;;4.22;;
69623;SDS011;56843;52.020;5.670;2022-11-04T08:09:00;13.38;;;4.30;;
69623;SDS011;56843;52.020;5.670;2022-11-04T08:10:30;14.13;;;3.40;;
69623;SDS011;56843;52.020;5.670;2022-11-04T08:12:16;14.18;;;4.80;;
69623;SDS011;56843;52.020;5.670;2022-11-04T08:13:50;13.98;;;4.22;;
69623;SDS011;56843;52.020;5.670;2022-11-04T08:15:21;7.85;;;2.97;;
69623;SDS011;56843;52.020;5.670;2022-11-04T08:16:51;12.00;;;3.90;;
69623;SDS011;56843;52.020;5.670;2022-11-04T08:18:25;10.07;;;3.75;;
69623;SDS011;56843;52.020;5.670;2022-11-04T08:19:55;15.33;;;3.53;;
69623;SDS011;56843;52.020;5.670;2022-11-04T08:21:26;8.87;;;3.30;;
69623;SDS011;56843;52.020;5.670;2022-11-04T08:23:01;13.20;;;3.15;;
69623;SDS011;56843;52.020;5.670;2022-11-04T08:24:31;7.73;;;3.00;;
69623;SDS011;56843;52.020;5.670;2022-11-04T08:26:06;15.68;;;3.72;;
69623;SDS011;56843;52.020;5.670;2022-11-04T08:27:46;14.93;;;3.42;;
69623;SDS011;56843;52.020;5.670;2022-11-04T08:29:17;9.93;;;2.90;;
69623;SDS011;56843;52.020;5.670;2022-11-04T08:31:05;13.15;;;2.75;;
69623;SDS011;56843;52.020;5.670;2022-11-04T08:32:42;7.85;;;2.65;;
69623;SDS011;56843;52.020;5.670;2022-11-04T08:34:13;8.30;;;2.90;;
69623;SDS011;56843;52.020;5.670;2022-11-04T08:35:46;13.68;;;2.85;;
69623;SDS011;56843;52.020;5.670;2022-11-04T08:37:19;10.88;;;3.13;;
69623;SDS011;56843;52.020;5.670;2022-11-04T08:38:50;9.82;;;2.92;;
69623;SDS011;56843;52.020;5.670;2022-11-04T08:40:30;10.32;;;2.88;;
69623;SDS011;56843;52.020;5.670;2022-11-04T08:42:04;14.50;;;2.87;;
69623;SDS011;56843;52.020;5.670;2022-11-04T08:43:39;10.50;;;2.93;;
69623;SDS011;56843;52.020;5.670;2022-11-04T08:45:10;13.00;;;3.28;;
69623;SDS011;56843;52.020;5.670;2022-11-04T08:46:41;10.50;;;2.63;;
69623;SDS011;56843;52.020;5.670;2022-11-04T08:48:17;6.20;;;2.95;;
69623;SDS011;56843;52.020;5.670;2022-11-04T08:49:50;10.52;;;3.42;;
69623;SDS011;56843;52.020;5.670;2022-11-04T08:51:22;12.30;;;2.95;;
69623;SDS011;56843;52.020;5.670;2022-11-04T08:52:57;9.05;;;2.95;;
69623;SDS011;56843;52.020;5.670;2022-11-04T08:54:27;10.80;;;3.40;;
69623;SDS011;56843;52.020;5.670;2022-11-04T08:55:58;7.22;;;2.92;;
69623;SDS011;56843;52.020;5.670;2022-11-04T08:57:29;22.70;;;7.53;;
69623;SDS011;56843;52.020;5.670;2022-11-04T08:59:00;38.40;;;8.32;;
69623;SDS011;56843;52.020;5.670;2022-11-04T09:00:31;13.60;;;3.80;;
69623;SDS011;56843;52.020;5.670;2022-11-04T09:02:02;10.97;;;2.97;;
69623;SDS011;56843;52.020;5.670;2022-11-04T09:03:35;11.32;;;3.47;;
69623;SDS011;56843;52.020;5.670;2022-11-04T09:05:07;12.55;;;3.55;;
69623;SDS011;56843;52.020;5.670;2022-11-04T09:06:42;8.75;;;3.35;;
69623;SDS011;56843;52.020;5.670;2022-11-04T09:08:15;10.88;;;2.53;;
69623;SDS011;56843;52.020;5.670;2022-11-04T09:09:47;14.82;;;5.55;;
69623;SDS011;56843;52.020;5.670;2022-11-04T09:11:22;15.30;;;4.18;;
69623;SDS011;56843;52.020;5.670;2022-11-04T09:12:53;9.07;;;3.28;;
69623;SDS011;56843;52.020;5.670;2022-11-04T09:14:24;10.07;;;2.83;;
69623;SDS011;56843;52.020;5.670;2022-11-04T09:15:54;15.80;;;3.10;;
69623;SDS011;56843;52.020;5.670;2022-11-04T09:17:25;10.07;;;2.93;;
69623;SDS011;56843;52.020;5.670;2022-11-04T09:18:56;8.38;;;2.78;;
69623;SDS011;56843;52.020;5.670;2022-11-04T09:20:27;11.50;;;2.75;;
69623;SDS011;56843;52.020;5.670;2022-11-04T09:21:58;10.60;;;3.37;;
69623;SDS011;56843;52.020;5.670;2022-11-04T09:23:29;8.73;;;2.65;;
69623;SDS011;56843;52.020;5.670;2022-11-04T09:25:00;42.47;;;22.17;;
69623;SDS011;56843;52.020;5.670;2022-11-04T09:26:33;18.40;;;6.17;;
69623;SDS011;56843;52.020;5.670;2022-11-04T09:28:04;12.23;;;3.93;;
69623;SDS011;56843;52.020;5.670;2022-11-04T09:29:35;7.45;;;3.25;;
69623;SDS011;56843;52.020;5.670;2022-11-04T09:31:10;14.98;;;3.90;;
69623;SDS011;56843;52.020;5.670;2022-11-04T09:32:45;7.93;;;3.28;;
69623;SDS011;56843;52.020;5.670;2022-11-04T09:34:16;16.50;;;7.10;;
69623;SDS011;56843;52.020;5.670;2022-11-04T09:35:53;20.00;;;7.20;;
69623;SDS011;56843;52.020;5.670;2022-11-04T09:37:25;14.15;;;5.63;;
69623;SDS011;56843;52.020;5.670;2022-11-04T09:38:55;14.32;;;5.15;;
69623;SDS011;56843;52.020;5.670;2022-11-04T09:40:30;23.07;;;7.97;;
69623;SDS011;56843;52.020;5.670;2022-11-04T09:45:42;23.50;;;8.07;;
69623;SDS011;56843;52.020;5.670;2022-11-04T09:47:13;13.90;;;5.63;;
69623;SDS011;56843;52.020;5.670;2022-11-04T09:48:46;16.00;;;4.78;;
69623;SDS011;56843;52.020;5.670;2022-11-04T09:50:30;18.15;;;4.45;;
69623;SDS011;56843;52.020;5.670;2022-11-04T09:52:29;17.45;;;4.78;;
69623;SDS011;56843;52.020;5.670;2022-11-04T09:54:21;11.00;;;3.73;;
69623;SDS011;56843;52.020;5.670;2022-11-04T09:56:05;10.68;;;5.05;;
69623;SDS011;56843;52.020;5.670;2022-11-04T09:57:44;12.05;;;5.00;;
69623;SDS011;56843;52.020;5.670;2022-11-04T09:59:28;14.50;;;5.13;;
69623;SDS011;56843;52.020;5.670;2022-11-04T10:01:14;12.95;;;5.43;;
69623;SDS011;56843;52.020;5.670;2022-11-04T10:02:50;10.45;;;4.82;;
69623;SDS011;56843;52.020;5.670;2022-11-04T10:10:02;17.40;;;5.35;;
69623;SDS011;56843;52.020;5.670;2022-11-04T10:11:45;15.88;;;5.57;;
69623;SDS011;56843;52.020;5.670;2022-11-04T10:13:42;15.73;;;4.82;;
69623;SDS011;56843;52.020;5.670;2022-11-04T10:16:14;15.13;;;6.35;;
69623;SDS011;56843;52.020;5.670;2022-11-04T10:23:20;12.52;;;5.75;;
69623;SDS011;56843;52.020;5.670;2022-11-04T10:25:15;16.23;;;5.50;;
69623;SDS011;56843;52.020;5.670;2022-11-04T10:26:53;13.30;;;5.50;;
69623;SDS011;56843;52.020;5.670;2022-11-04T10:28:33;17.45;;;5.72;;
69623;SDS011;56843;52.020;5.670;2022-11-04T10:30:17;13.15;;;6.25;;
69623;SDS011;56843;52.020;5.670;2022-11-04T10:31:59;11.30;;;6.25;;
69623;SDS011;56843;52.020;5.670;2022-11-04T10:33:40;17.77;;;6.28;;